createdAt,value
2022-10-11T00:01:08.170Z,93.67
2022-10-11T00:03:34.617Z,93.97
2022-10-11T00:06:03.197Z,95.11
2022-10-11T00:08:30.061Z,94.80
2022-10-11T00:10:58.791Z,94.36
2022-10-11T00:13:25.702Z,92.84
2022-10-11T00:15:52.235Z,92.30
2022-10-11T00:18:19.987Z,92.24
2022-10-11T00:20:46.395Z,91.82
2022-10-11T00:23:12.802Z,91.05
2022-10-11T00:25:39.340Z,90.69
2022-10-11T00:28:06.180Z,90.59
2022-10-11T00:30:33.125Z,89.95
2022-10-11T00:32:59.609Z,89.94
2022-10-11T00:35:26.188Z,88.93
2022-10-11T00:37:52.539Z,89.23
2022-10-11T00:40:20.873Z,88.91
2022-10-11T00:42:47.586Z,87.86
2022-10-11T00:45:26.347Z,87.13
2022-10-11T00:48:14.516Z,87.53
2022-10-11T00:50:41.743Z,87.43
2022-10-11T00:53:11.738Z,87.29
2022-10-11T00:55:49.356Z,87.78
2022-10-11T00:58:17.678Z,86.67
2022-10-11T01:00:44.124Z,87.37
2022-10-11T01:03:10.734Z,86.49
2022-10-11T01:05:39.665Z,85.87
2022-10-11T01:08:08.441Z,83.52
2022-10-11T01:10:35.291Z,83.32
2022-10-11T01:13:27.771Z,83.38
2022-10-11T01:16:05.655Z,83.24
2022-10-11T01:18:58.793Z,82.22
2022-10-11T01:21:33.843Z,83.12
2022-10-11T01:24:18.504Z,82.47
2022-10-11T01:27:40.638Z,81.31
2022-10-11T01:30:20.452Z,81.81
2022-10-11T01:32:57.439Z,81.04
2022-10-11T01:35:38.980Z,82.24
2022-10-11T01:38:13.334Z,82.58
2022-10-11T01:40:47.918Z,82.26
2022-10-11T01:43:15.730Z,80.47
2022-10-11T01:45:43.518Z,81.67
2022-10-11T01:48:12.765Z,82.08
2022-10-11T01:50:44.247Z,81.77
2022-10-11T01:53:26.885Z,80.89
2022-10-11T01:56:14.728Z,81.15
2022-10-11T01:59:08.090Z,81.83
2022-10-11T02:01:58.457Z,81.00
2022-10-11T02:04:31.465Z,81.25
2022-10-11T02:07:00.775Z,81.58
2022-10-11T02:09:37.418Z,82.24
2022-10-11T02:12:09.616Z,81.47
2022-10-11T02:14:41.144Z,82.57
2022-10-11T02:17:13.876Z,83.15
2022-10-11T02:19:46.991Z,82.93
2022-10-11T02:22:27.822Z,83.29
2022-10-11T02:24:58.801Z,84.00
2022-10-11T02:27:30.248Z,84.06
2022-10-11T02:30:00.031Z,84.11
2022-10-11T02:32:29.164Z,83.75
2022-10-11T02:34:58.112Z,84.32
2022-10-11T02:37:24.433Z,85.38
2022-10-11T02:39:58.450Z,85.59
2022-10-11T02:42:30.776Z,87.09
2022-10-11T02:45:02.887Z,87.18
2022-10-11T02:47:31.293Z,89.25
2022-10-11T02:49:59.657Z,88.55
2022-10-11T02:52:26.689Z,88.22
2022-10-11T02:54:53.081Z,88.63
2022-10-11T02:57:20.042Z,89.10
2022-10-11T02:59:46.444Z,89.90
2022-10-11T03:02:13.013Z,89.68
2022-10-11T03:04:39.455Z,90.24
2022-10-11T03:07:05.808Z,90.42
2022-10-11T03:09:32.561Z,90.20
2022-10-11T03:11:58.963Z,88.65
2022-10-11T03:14:25.405Z,91.61
2022-10-11T03:16:51.761Z,91.45
2022-10-11T03:19:19.415Z,91.49
2022-10-11T03:21:46.265Z,91.77
2022-10-11T03:24:12.661Z,91.77
2022-10-11T03:26:39.043Z,93.21
2022-10-11T03:29:05.497Z,91.54
2022-10-11T03:31:31.937Z,91.67
2022-10-11T03:33:58.372Z,93.08
2022-10-11T03:36:24.761Z,93.27
2022-10-11T03:38:51.110Z,92.85
2022-10-11T03:41:17.722Z,92.83
2022-10-11T03:43:44.437Z,92.96
2022-10-11T03:46:10.883Z,93.91
2022-10-11T03:48:37.255Z,93.15
2022-10-11T03:51:03.647Z,93.44
2022-10-11T03:53:30.023Z,93.91
2022-10-11T03:55:56.501Z,93.86
2022-10-11T03:58:23.953Z,93.87
2022-10-11T04:00:52.523Z,93.16
2022-10-11T04:03:18.933Z,92.13
2022-10-11T04:05:45.346Z,93.33
2022-10-11T04:08:12.451Z,93.70
2022-10-11T04:10:39.960Z,93.82
2022-10-11T04:13:07.328Z,93.40
2022-10-11T04:15:33.706Z,94.06
2022-10-11T04:18:00.188Z,95.65
2022-10-11T04:20:26.558Z,96.08
2022-10-11T04:22:52.996Z,95.49
2022-10-11T04:25:19.383Z,94.51
2022-10-11T04:27:45.826Z,93.52
2022-10-11T04:30:12.826Z,93.88
2022-10-11T04:32:39.214Z,94.06
2022-10-11T04:35:06.215Z,93.79
2022-10-11T04:37:33.096Z,93.70
2022-10-11T04:39:59.843Z,95.42
2022-10-11T04:42:26.283Z,96.16
2022-10-11T04:44:52.690Z,95.04
2022-10-11T04:47:19.162Z,94.29
2022-10-11T04:49:45.576Z,94.01
2022-10-11T04:52:12.036Z,93.15
2022-10-11T04:54:38.439Z,92.91
2022-10-11T04:57:04.831Z,92.45
2022-10-11T04:59:31.502Z,92.78
2022-10-11T05:01:58.031Z,91.91
2022-10-11T05:04:24.495Z,92.71
2022-10-11T05:06:51.133Z,93.42
2022-10-11T05:09:17.712Z,93.17
2022-10-11T05:11:44.093Z,93.63
2022-10-11T05:14:10.475Z,93.46
2022-10-11T05:16:36.938Z,93.36
2022-10-11T05:19:03.461Z,92.96
2022-10-11T05:21:30.533Z,92.62
2022-10-11T05:23:57.559Z,92.67
2022-10-11T05:26:27.168Z,92.66
2022-10-11T05:28:54.477Z,93.40
2022-10-11T05:31:21.420Z,92.92
2022-10-11T05:33:47.951Z,92.77
2022-10-11T05:36:14.538Z,94.08
2022-10-11T05:38:41.318Z,94.57
2022-10-11T05:41:11.244Z,95.07
2022-10-11T05:43:37.671Z,93.72
2022-10-11T05:46:04.423Z,93.06
2022-10-11T05:48:31.060Z,92.64
2022-10-11T05:51:06.422Z,93.95
2022-10-11T05:53:33.298Z,93.16
2022-10-11T05:55:59.693Z,93.30
2022-10-11T05:58:26.819Z,93.13
2022-10-11T06:00:53.284Z,93.27
2022-10-11T06:03:21.044Z,92.93
2022-10-11T06:05:47.703Z,90.14
2022-10-11T06:08:14.764Z,82.44
2022-10-11T06:10:41.691Z,76.09
2022-10-11T06:13:09.383Z,74.26
2022-10-11T06:15:38.890Z,71.48
2022-10-11T06:18:05.423Z,70.98
2022-10-11T06:20:31.960Z,69.75
2022-10-11T06:22:59.021Z,69.54
2022-10-11T06:25:25.510Z,68.74
2022-10-11T06:27:51.946Z,72.13
2022-10-11T06:30:18.409Z,72.46
2022-10-11T06:32:44.836Z,74.87
2022-10-11T06:35:11.560Z,76.81
2022-10-11T06:37:37.927Z,75.16
2022-10-11T06:40:05.912Z,73.87
2022-10-11T06:42:32.386Z,73.23
2022-10-11T06:44:58.863Z,72.23
2022-10-11T06:47:25.264Z,73.77
2022-10-11T06:49:51.661Z,73.24
2022-10-11T06:52:18.153Z,71.49
2022-10-11T06:54:45.552Z,73.60
2022-10-11T06:57:12.100Z,74.41
2022-10-11T06:59:38.524Z,74.42
2022-10-11T07:02:04.976Z,73.94
2022-10-11T07:04:33.643Z,73.23
2022-10-11T07:07:00.154Z,73.88
2022-10-11T07:09:26.607Z,74.31
2022-10-11T07:11:53.179Z,74.68
2022-10-11T07:14:19.611Z,74.09
2022-10-11T07:16:46.029Z,71.74
2022-10-11T07:19:12.518Z,70.50
2022-10-11T07:21:38.953Z,71.22
2022-10-11T07:24:05.901Z,70.56
2022-10-11T07:26:38.120Z,69.58
2022-10-11T07:29:08.006Z,70.71
2022-10-11T07:31:36.132Z,75.27
2022-10-11T07:34:02.771Z,71.93
2022-10-11T07:36:29.398Z,71.39
2022-10-11T07:38:55.806Z,70.41
2022-10-11T07:41:22.216Z,65.77
2022-10-11T07:43:49.860Z,62.33
2022-10-11T07:46:17.979Z,58.28
2022-10-11T07:48:44.737Z,54.44
2022-10-11T07:51:18.296Z,52.71
2022-10-11T07:53:47.505Z,50.13
2022-10-11T07:56:16.517Z,50.58
2022-10-11T07:58:43.374Z,49.04
2022-10-11T08:01:10.869Z,49.56
2022-10-11T08:03:38.131Z,48.38
2022-10-11T08:06:09.039Z,45.91
2022-10-11T08:08:37.048Z,45.79
2022-10-11T08:11:04.327Z,45.12
2022-10-11T08:13:31.632Z,44.74
2022-10-11T08:15:58.233Z,43.99
2022-10-11T08:18:25.040Z,44.03
2022-10-11T08:20:52.058Z,43.89
2022-10-11T08:23:19.372Z,44.04
2022-10-11T08:25:47.654Z,43.82
2022-10-11T08:28:17.976Z,44.79
2022-10-11T08:30:50.368Z,44.71
2022-10-11T08:33:21.284Z,44.61
2022-10-11T08:35:48.672Z,43.52
2022-10-11T08:38:15.297Z,43.81
2022-10-11T08:40:55.178Z,45.54
2022-10-11T08:43:36.008Z,45.22
2022-10-11T08:46:05.914Z,45.16
2022-10-11T08:48:36.613Z,46.99
2022-10-11T08:51:14.773Z,46.24
2022-10-11T08:53:48.156Z,45.47
2022-10-11T08:56:16.473Z,45.75
2022-10-11T08:58:54.431Z,46.45
2022-10-11T09:01:23.723Z,47.94
2022-10-11T09:03:51.617Z,45.76
2022-10-11T09:06:21.455Z,46.29
2022-10-11T09:08:58.582Z,45.91
2022-10-11T09:11:45.557Z,45.53
2022-10-11T09:14:17.769Z,44.41
2022-10-11T09:17:01.470Z,44.58
2022-10-11T09:20:08.550Z,45.58
2022-10-11T09:22:44.072Z,44.90
2022-10-11T09:25:44.229Z,43.75
2022-10-11T09:28:21.933Z,43.93
2022-10-11T09:30:52.653Z,43.52
2022-10-11T09:33:38.815Z,42.97
2022-10-11T09:36:26.401Z,42.00
2022-10-11T09:39:15.743Z,39.23
2022-10-11T09:41:52.035Z,37.67
2022-10-11T09:44:27.487Z,37.29
2022-10-11T09:46:56.059Z,35.51
2022-10-11T09:49:29.121Z,32.71
2022-10-11T09:51:58.850Z,31.36
2022-10-11T09:54:49.247Z,30.36
2022-10-11T09:57:24.998Z,29.29
2022-10-11T10:00:00.477Z,27.65
2022-10-11T10:02:29.585Z,27.64
2022-10-11T10:05:02.233Z,28.13
2022-10-11T10:07:31.595Z,29.41
2022-10-11T10:09:58.564Z,28.64
2022-10-11T10:12:29.304Z,28.33
2022-10-11T10:15:18.852Z,28.49
2022-10-11T10:17:53.135Z,28.91
2022-10-11T10:20:22.558Z,28.23
2022-10-11T10:22:49.336Z,27.06
2022-10-11T10:25:29.890Z,25.60
2022-10-11T10:27:59.276Z,25.85
2022-10-11T10:30:26.185Z,26.78
2022-10-11T10:33:00.678Z,26.16
2022-10-11T10:35:27.398Z,26.67
2022-10-11T10:37:56.556Z,26.67
2022-10-11T10:40:30.091Z,26.69
2022-10-11T10:42:56.496Z,25.64
2022-10-11T10:45:32.870Z,26.04
2022-10-11T10:48:18.182Z,26.73
2022-10-11T10:51:05.970Z,25.51
2022-10-11T10:53:42.016Z,26.86
2022-10-11T10:56:17.847Z,27.54
2022-10-11T10:58:46.945Z,27.70
2022-10-11T11:01:27.175Z,28.99
2022-10-11T11:03:57.556Z,27.95
2022-10-11T11:06:41.370Z,27.26
2022-10-11T11:09:17.707Z,27.36
2022-10-11T11:11:57.149Z,27.73
2022-10-11T11:14:43.991Z,27.26
2022-10-11T11:17:31.359Z,26.86
2022-10-11T11:20:31.091Z,26.51
2022-10-11T11:23:38.146Z,24.59
2022-10-11T11:26:11.215Z,24.70
2022-10-11T11:29:03.386Z,25.31
2022-10-11T11:31:44.662Z,24.67
2022-10-11T11:34:18.891Z,25.65
2022-10-11T11:36:55.394Z,25.60
2022-10-11T11:39:25.832Z,25.96
2022-10-11T11:41:59.683Z,24.73
2022-10-11T11:44:34.451Z,25.63
2022-10-11T11:47:21.321Z,24.82
2022-10-11T11:49:53.743Z,25.97
2022-10-11T11:52:26.920Z,25.36
2022-10-11T11:55:03.739Z,27.64
2022-10-11T11:58:15.553Z,27.26
2022-10-11T12:00:54.534Z,29.64
2022-10-11T12:03:27.238Z,31.03
2022-10-11T12:06:11.969Z,28.43
2022-10-11T12:08:40.661Z,27.92
2022-10-11T12:11:17.912Z,27.30
2022-10-11T12:13:46.548Z,24.57
2022-10-11T12:16:16.340Z,22.11
2022-10-11T12:19:03.607Z,21.49
2022-10-11T12:21:33.498Z,22.00
2022-10-11T12:24:10.710Z,22.81
2022-10-11T12:26:42.933Z,22.89
2022-10-11T12:29:18.662Z,24.44
2022-10-11T12:31:48.026Z,25.36
2022-10-11T12:34:37.605Z,25.33
2022-10-11T12:37:24.435Z,29.32
2022-10-11T12:39:55.784Z,29.17
2022-10-11T12:42:34.366Z,29.20
2022-10-11T12:45:13.026Z,26.18
2022-10-11T12:47:59.312Z,25.34
2022-10-11T12:51:02.944Z,23.90
2022-10-11T12:53:29.626Z,23.39
2022-10-11T12:56:12.387Z,24.57
2022-10-11T12:58:43.821Z,24.10
2022-10-11T13:01:14.837Z,23.04
2022-10-11T13:03:44.851Z,24.54
2022-10-11T13:06:12.843Z,25.07
2022-10-11T13:08:43.185Z,23.78
2022-10-11T13:11:11.644Z,23.52
2022-10-11T13:13:44.920Z,22.55
2022-10-11T13:16:21.407Z,22.32
2022-10-11T13:18:54.201Z,22.61
2022-10-11T13:21:31.469Z,23.17
2022-10-11T13:24:00.627Z,23.32
2022-10-11T13:26:29.057Z,24.34
2022-10-11T13:28:55.764Z,24.86
2022-10-11T13:31:24.287Z,26.74
2022-10-11T13:33:55.105Z,28.80
2022-10-11T13:36:25.583Z,30.03
2022-10-11T13:39:00.373Z,29.02
2022-10-11T13:41:29.779Z,30.53
2022-10-11T13:43:58.202Z,30.71
2022-10-11T13:46:27.854Z,31.01
2022-10-11T13:48:59.031Z,30.32
2022-10-11T13:51:35.928Z,30.58
2022-10-11T13:54:11.737Z,28.85
2022-10-11T13:56:48.081Z,26.46
2022-10-11T13:59:20.167Z,25.65
2022-10-11T14:01:47.567Z,25.21
2022-10-11T14:04:17.122Z,26.82
2022-10-11T14:06:48.010Z,27.98
2022-10-11T14:09:26.212Z,29.03
2022-10-11T14:11:53.418Z,30.52
2022-10-11T14:14:35.515Z,31.06
2022-10-11T14:17:06.462Z,32.85
2022-10-11T14:19:32.995Z,33.75
2022-10-11T14:21:59.443Z,33.77
2022-10-11T14:24:25.884Z,35.19
2022-10-11T14:26:54.495Z,35.34
2022-10-11T14:29:29.354Z,36.86
2022-10-11T14:32:14.090Z,37.71
2022-10-11T14:34:40.513Z,39.94
2022-10-11T14:37:06.904Z,39.58
2022-10-11T14:39:33.440Z,40.25
2022-10-11T14:41:59.888Z,41.66
2022-10-11T14:44:26.413Z,41.65
2022-10-11T14:46:54.826Z,42.07
2022-10-11T14:49:30.326Z,42.79
2022-10-11T14:51:58.410Z,43.39
2022-10-11T14:54:26.873Z,43.68
2022-10-11T14:56:56.500Z,44.58
2022-10-11T14:59:25.695Z,45.42
2022-10-11T15:01:53.957Z,44.65
2022-10-11T15:04:21.840Z,44.65
2022-10-11T15:06:49.025Z,45.16
2022-10-11T15:09:17.118Z,45.03
2022-10-11T15:11:43.871Z,46.10
2022-10-11T15:14:10.263Z,45.31
2022-10-11T15:16:36.643Z,46.50
2022-10-11T15:19:03.818Z,46.33
2022-10-11T15:21:30.298Z,46.04
2022-10-11T15:23:56.836Z,46.26
2022-10-11T15:26:26.378Z,47.77
2022-10-11T15:28:54.756Z,47.66
2022-10-11T15:31:21.559Z,47.95
2022-10-11T15:33:48.553Z,47.94
2022-10-11T15:36:21.487Z,47.39
2022-10-11T15:38:49.168Z,47.47
2022-10-11T15:41:18.744Z,48.27
2022-10-11T15:43:46.544Z,48.13
2022-10-11T15:46:18.075Z,49.45
2022-10-11T15:48:45.583Z,48.52
2022-10-11T15:51:12.245Z,49.09
2022-10-11T15:53:39.055Z,49.29
2022-10-11T15:56:09.206Z,48.97
2022-10-11T15:58:38.108Z,51.26
2022-10-11T16:01:08.291Z,51.60
2022-10-11T16:03:36.072Z,51.96
2022-10-11T16:06:05.574Z,52.37
2022-10-11T16:08:33.293Z,53.38
2022-10-11T16:11:00.224Z,53.73
2022-10-11T16:13:26.705Z,54.79
2022-10-11T16:15:53.210Z,56.23
2022-10-11T16:18:20.947Z,58.47
2022-10-11T16:20:48.895Z,60.72
2022-10-11T16:23:15.660Z,62.39
2022-10-11T16:25:42.438Z,62.32
2022-10-11T16:28:10.118Z,63.93
2022-10-11T16:30:43.103Z,65.42
2022-10-11T16:33:09.894Z,66.18
2022-10-11T16:35:36.692Z,67.16
2022-10-11T16:38:03.118Z,68.45
2022-10-11T16:40:30.044Z,70.04
2022-10-11T16:42:56.811Z,70.13
2022-10-11T16:45:23.455Z,70.82
2022-10-11T16:47:49.913Z,72.44
2022-10-11T16:50:16.393Z,72.00
2022-10-11T16:52:42.799Z,72.92
2022-10-11T16:55:09.661Z,73.20
2022-10-11T16:57:37.681Z,73.35
2022-10-11T17:00:08.700Z,74.80
2022-10-11T17:02:36.123Z,74.98
2022-10-11T17:05:03.893Z,75.41
2022-10-11T17:07:30.904Z,76.12
2022-10-11T17:09:58.128Z,76.94
2022-10-11T17:12:24.641Z,76.44
2022-10-11T17:14:51.482Z,77.86
2022-10-11T17:17:18.957Z,77.39
2022-10-11T17:19:47.560Z,78.20
2022-10-11T17:22:16.678Z,78.46
2022-10-11T17:24:43.661Z,78.71
2022-10-11T17:27:10.123Z,78.89
2022-10-11T17:29:37.165Z,78.93
2022-10-11T17:32:04.156Z,79.46
2022-10-11T17:34:30.770Z,79.91
2022-10-11T17:36:57.121Z,80.66
2022-10-11T17:39:24.061Z,80.77
2022-10-11T17:41:50.636Z,80.43
2022-10-11T17:44:18.766Z,81.09
2022-10-11T17:46:46.451Z,81.36
2022-10-11T17:49:13.057Z,81.29
2022-10-11T17:51:40.197Z,81.22
2022-10-11T17:54:12.184Z,80.97
2022-10-11T17:56:40.433Z,81.98
2022-10-11T17:59:08.397Z,81.57
2022-10-11T18:01:35.668Z,81.16
2022-10-11T18:04:05.060Z,81.95
2022-10-11T18:06:34.145Z,81.88
2022-10-11T18:09:02.285Z,82.41
2022-10-11T18:11:29.307Z,82.84
2022-10-11T18:13:56.021Z,83.74
2022-10-11T18:16:26.854Z,83.25
2022-10-11T18:18:54.706Z,83.86
2022-10-11T18:21:21.174Z,83.90
2022-10-11T18:23:47.789Z,83.72
2022-10-11T18:26:17.538Z,83.88
2022-10-11T18:28:44.384Z,83.56
2022-10-11T18:31:17.033Z,83.53
2022-10-11T18:33:45.870Z,83.36
2022-10-11T18:36:14.172Z,84.20
2022-10-11T18:38:46.075Z,84.34
2022-10-11T18:41:14.999Z,84.20
2022-10-11T18:43:41.948Z,83.73
2022-10-11T18:46:13.853Z,84.04
2022-10-11T18:48:42.038Z,84.37
2022-10-11T18:51:11.579Z,85.13
2022-10-11T18:53:38.460Z,85.28
2022-10-11T18:56:07.231Z,85.82
2022-10-11T18:58:35.464Z,86.14
2022-10-11T19:01:20.438Z,87.10
2022-10-11T19:03:49.056Z,85.98
2022-10-11T19:06:18.210Z,86.40
2022-10-11T19:08:46.706Z,86.14
2022-10-11T19:11:14.040Z,85.79
2022-10-11T19:13:40.515Z,85.60
2022-10-11T19:16:09.867Z,86.16
2022-10-11T19:18:41.718Z,85.96
2022-10-11T19:21:12.685Z,85.69
2022-10-11T19:23:42.065Z,85.90
2022-10-11T19:26:31.303Z,85.47
2022-10-11T19:29:00.663Z,86.58
2022-10-11T19:31:28.301Z,87.02
2022-10-11T19:33:57.105Z,86.49
2022-10-11T19:36:24.259Z,85.59
2022-10-11T19:38:51.432Z,86.68
2022-10-11T19:41:19.774Z,87.90
2022-10-11T19:43:47.009Z,89.27
2022-10-11T19:46:20.262Z,88.70
2022-10-11T19:48:50.859Z,89.41
2022-10-11T19:51:22.896Z,89.11
2022-10-11T19:53:55.175Z,89.41
2022-10-11T19:56:21.611Z,88.85
2022-10-11T19:58:48.522Z,88.66
2022-10-11T20:01:21.406Z,88.05
2022-10-11T20:03:53.870Z,87.62
2022-10-11T20:06:22.017Z,86.69
2022-10-11T20:09:10.348Z,86.67
2022-10-11T20:11:38.024Z,86.88
2022-10-11T20:14:04.805Z,87.08
2022-10-11T20:16:31.318Z,87.71
2022-10-11T20:19:01.999Z,88.67
2022-10-11T20:21:30.310Z,88.57
2022-10-11T20:24:02.035Z,87.61
2022-10-11T20:26:29.737Z,87.25
2022-10-11T20:28:57.417Z,87.27
2022-10-11T20:31:32.781Z,87.73
2022-10-11T20:34:06.104Z,87.33
2022-10-11T20:36:34.204Z,87.73
2022-10-11T20:39:00.742Z,89.21
2022-10-11T20:41:33.132Z,89.27
2022-10-11T20:44:01.320Z,88.54
2022-10-11T20:46:31.300Z,88.62
2022-10-11T20:49:01.860Z,88.85
2022-10-11T20:51:30.484Z,88.74
2022-10-11T20:53:57.005Z,88.80
2022-10-11T20:56:23.472Z,89.16
2022-10-11T20:58:52.335Z,88.88
2022-10-11T21:01:21.151Z,88.84
2022-10-11T21:03:47.658Z,88.97
2022-10-11T21:06:14.050Z,88.99
2022-10-11T21:08:40.795Z,88.50
2022-10-11T21:11:08.407Z,88.38
2022-10-11T21:13:34.970Z,88.84
2022-10-11T21:16:12.353Z,88.56
2022-10-11T21:18:39.325Z,87.69
2022-10-11T21:21:07.679Z,87.85
2022-10-11T21:23:34.575Z,87.72
2022-10-11T21:26:02.769Z,87.30
2022-10-11T21:28:29.775Z,87.67
2022-10-11T21:31:02.237Z,87.93
2022-10-11T21:33:30.064Z,88.10
2022-10-11T21:35:57.409Z,89.03
2022-10-11T21:38:23.841Z,89.73
2022-10-11T21:40:50.207Z,89.25
2022-10-11T21:43:16.614Z,88.86
2022-10-11T21:45:43.148Z,88.67
2022-10-11T21:48:09.490Z,88.53
2022-10-11T21:50:35.886Z,88.37
2022-10-11T21:53:02.369Z,89.33
2022-10-11T21:55:28.847Z,88.91
2022-10-11T21:57:55.251Z,88.98
2022-10-11T22:00:21.620Z,88.76
2022-10-11T22:02:48.107Z,88.73
2022-10-11T22:05:14.465Z,88.67
2022-10-11T22:07:40.836Z,89.05
2022-10-11T22:10:07.348Z,89.08
2022-10-11T22:12:33.959Z,88.38
2022-10-11T22:15:00.600Z,88.99
2022-10-11T22:17:26.987Z,88.39
2022-10-11T22:19:53.360Z,88.88
2022-10-11T22:22:19.751Z,88.64
2022-10-11T22:24:46.153Z,88.75
2022-10-11T22:27:12.562Z,88.51
2022-10-11T22:29:38.921Z,88.49
2022-10-11T22:32:05.329Z,88.54
2022-10-11T22:34:32.724Z,89.15
2022-10-11T22:36:59.079Z,89.28
2022-10-11T22:39:25.553Z,89.58
2022-10-11T22:41:53.997Z,89.08
2022-10-11T22:44:20.695Z,89.04
2022-10-11T22:46:47.185Z,88.64
2022-10-11T22:49:13.619Z,88.35
2022-10-11T22:51:39.991Z,88.32
2022-10-11T22:54:06.380Z,88.54
2022-10-11T22:56:32.851Z,88.44
2022-10-11T22:58:59.471Z,88.92
2022-10-11T23:01:25.850Z,88.51
2022-10-11T23:03:52.303Z,88.81
2022-10-11T23:06:18.745Z,89.30
2022-10-11T23:08:45.220Z,88.90
2022-10-11T23:11:13.591Z,89.11
2022-10-11T23:13:39.993Z,89.08
2022-10-11T23:16:08.013Z,89.09
2022-10-11T23:18:34.671Z,89.09
2022-10-11T23:21:01.365Z,88.70
2022-10-11T23:23:27.732Z,89.08
2022-10-11T23:26:05.064Z,89.01
2022-10-11T23:28:32.052Z,89.19
2022-10-11T23:30:58.781Z,88.60
2022-10-11T23:33:25.521Z,88.34
2022-10-11T23:35:51.883Z,88.22
2022-10-11T23:38:18.287Z,88.24
2022-10-11T23:40:44.697Z,88.62
2022-10-11T23:43:11.103Z,88.38
2022-10-11T23:45:37.601Z,87.68
2022-10-11T23:48:04.402Z,87.75
2022-10-11T23:50:30.749Z,87.83
2022-10-11T23:52:57.170Z,88.11
2022-10-11T23:55:23.508Z,88.01
2022-10-11T23:57:49.948Z,87.91
